createdAt,value
2022-09-16T00:02:24.744Z,12.72
2022-09-16T00:05:12.314Z,12.73
2022-09-16T00:07:59.636Z,12.73
2022-09-16T00:10:47.172Z,12.73
2022-09-16T00:13:34.673Z,12.74
2022-09-16T00:16:25.620Z,12.75
2022-09-16T00:19:13.535Z,12.75
2022-09-16T00:22:00.827Z,12.74
2022-09-16T00:24:50.265Z,12.74
2022-09-16T00:27:37.672Z,12.74
2022-09-16T00:30:24.648Z,12.74
2022-09-16T00:33:12.336Z,12.72
2022-09-16T00:36:17.744Z,12.71
2022-09-16T00:39:05.560Z,12.69
2022-09-16T00:41:53.071Z,12.68
2022-09-16T00:45:03.118Z,12.67
2022-09-16T00:48:03.124Z,12.65
2022-09-16T00:50:53.544Z,12.63
2022-09-16T00:53:48.935Z,12.63
2022-09-16T00:56:38.671Z,12.61
2022-09-16T00:59:32.176Z,12.61
2022-09-16T01:02:21.597Z,12.61
2022-09-16T01:05:12.447Z,12.60
2022-09-16T01:08:00.224Z,12.60
2022-09-16T01:10:47.695Z,12.58
2022-09-16T01:13:34.984Z,12.57
2022-09-16T01:16:28.738Z,12.54
2022-09-16T01:19:31.233Z,12.53
2022-09-16T01:22:27.768Z,12.51
2022-09-16T01:25:39.170Z,12.48
2022-09-16T01:28:58.504Z,12.48
2022-09-16T01:32:05.903Z,12.46
2022-09-16T01:34:58.955Z,12.47
2022-09-16T01:37:58.050Z,12.47
2022-09-16T01:41:06.305Z,12.46
2022-09-16T01:43:59.920Z,12.46
2022-09-16T01:46:56.375Z,12.46
2022-09-16T01:50:01.793Z,12.45
2022-09-16T01:52:57.951Z,12.40
2022-09-16T01:55:50.305Z,12.33
2022-09-16T01:58:50.193Z,12.29
2022-09-16T02:01:52.011Z,12.20
2022-09-16T02:04:45.464Z,12.09
2022-09-16T02:07:37.512Z,12.01
2022-09-16T02:10:27.808Z,11.94
2022-09-16T02:16:06.928Z,11.93
2022-09-16T02:18:57.559Z,11.88
2022-09-16T02:21:46.153Z,11.84
2022-09-16T02:24:34.558Z,11.79
2022-09-16T02:27:23.082Z,11.73
2022-09-16T02:30:19.217Z,11.70
2022-09-16T02:33:08.432Z,11.64
2022-09-16T02:35:57.080Z,11.60
2022-09-16T02:38:46.669Z,11.56
2022-09-16T02:41:34.444Z,11.54
2022-09-16T02:44:21.816Z,11.49
2022-09-16T02:47:33.168Z,11.43
2022-09-16T02:50:29.551Z,11.40
2022-09-16T02:53:36.460Z,11.35
2022-09-16T02:56:26.092Z,11.29
2022-09-16T02:59:13.888Z,11.24
2022-09-16T03:02:01.875Z,11.22
2022-09-16T03:04:49.551Z,11.17
2022-09-16T03:07:37.864Z,11.11
2022-09-16T03:10:27.047Z,11.07
2022-09-16T03:13:34.687Z,11.04
2022-09-16T03:16:34.231Z,11.00
2022-09-16T03:19:47.310Z,10.96
2022-09-16T03:22:54.327Z,10.92
2022-09-16T03:26:00.110Z,10.88
2022-09-16T03:28:55.170Z,10.85
2022-09-16T03:31:48.487Z,10.75
2022-09-16T03:37:35.713Z,10.66
2022-09-16T03:40:22.994Z,10.59
2022-09-16T03:43:16.125Z,10.53
2022-09-16T03:46:03.198Z,10.49
2022-09-16T03:48:50.375Z,10.45
2022-09-16T03:51:38.224Z,10.44
2022-09-16T03:54:26.119Z,10.44
2022-09-16T03:57:13.415Z,10.45
2022-09-16T04:00:00.819Z,10.41
2022-09-16T04:02:48.800Z,10.38
2022-09-16T04:05:36.234Z,10.39
2022-09-16T04:08:24.151Z,10.40
2022-09-16T04:11:11.679Z,10.47
2022-09-16T04:13:59.320Z,10.54
2022-09-16T04:16:47.015Z,10.62
2022-09-16T04:19:34.296Z,10.70
2022-09-16T04:22:21.639Z,10.77
2022-09-16T04:25:10.129Z,10.80
2022-09-16T04:27:57.511Z,10.84
2022-09-16T04:30:45.009Z,10.87
2022-09-16T04:33:36.631Z,10.87
2022-09-16T04:36:23.888Z,10.85
2022-09-16T04:39:12.280Z,10.81
2022-09-16T04:42:01.218Z,10.75
2022-09-16T04:44:48.375Z,10.69
2022-09-16T04:47:35.607Z,10.66
2022-09-16T04:50:22.567Z,10.60
2022-09-16T04:53:10.216Z,10.56
2022-09-16T04:56:06.239Z,10.57
2022-09-16T04:58:57.640Z,10.61
2022-09-16T05:01:46.115Z,10.66
2022-09-16T05:04:33.551Z,10.68
2022-09-16T05:07:21.071Z,10.71
2022-09-16T05:10:08.960Z,10.76
2022-09-16T05:12:56.472Z,10.83
2022-09-16T05:15:47.571Z,10.92
2022-09-16T05:18:32.807Z,11.00
2022-09-16T05:21:22.304Z,11.07
2022-09-16T05:24:11.303Z,11.17
2022-09-16T05:26:58.849Z,11.24
2022-09-16T05:29:46.016Z,11.31
2022-09-16T05:32:33.481Z,11.40
2022-09-16T05:35:20.791Z,11.50
2022-09-16T05:38:09.071Z,11.57
2022-09-16T05:40:59.025Z,11.56
2022-09-16T05:43:46.530Z,11.55
2022-09-16T05:46:35.130Z,11.58
2022-09-16T05:49:24.141Z,11.71
2022-09-16T05:52:11.920Z,11.85
2022-09-16T05:54:59.231Z,11.98
2022-09-16T05:57:47.312Z,11.99
2022-09-16T06:00:34.984Z,11.94
2022-09-16T06:03:23.523Z,11.92
2022-09-16T06:06:16.881Z,11.95
2022-09-16T06:09:14.746Z,12.11
2022-09-16T06:12:02.623Z,12.28
2022-09-16T06:14:49.872Z,12.46
2022-09-16T06:17:37.599Z,12.57
2022-09-16T06:20:25.471Z,12.68
2022-09-16T06:23:12.919Z,12.89
2022-09-16T06:26:05.336Z,13.06
2022-09-16T06:28:53.750Z,13.15
2022-09-16T06:31:41.650Z,13.22
2022-09-16T06:34:29.247Z,13.28
2022-09-16T06:37:17.368Z,13.35
2022-09-16T06:40:04.486Z,13.38
2022-09-16T06:43:00.069Z,13.44
2022-09-16T06:45:45.531Z,13.54
2022-09-16T06:48:36.654Z,13.55
2022-09-16T06:51:26.967Z,13.63
2022-09-16T06:54:14.399Z,13.67
2022-09-16T06:57:01.886Z,13.70
2022-09-16T06:59:48.960Z,13.70
2022-09-16T07:02:37.256Z,13.65
2022-09-16T07:05:25.457Z,13.58
2022-09-16T07:08:12.959Z,13.55
2022-09-16T07:11:14.763Z,13.50
2022-09-16T07:14:02.432Z,13.45
2022-09-16T07:16:50.184Z,13.44
2022-09-16T07:19:37.988Z,13.50
2022-09-16T07:22:25.087Z,13.58
2022-09-16T07:25:12.151Z,13.64
2022-09-16T07:27:59.760Z,13.67
2022-09-16T07:30:47.361Z,13.68
2022-09-16T07:33:39.929Z,13.68
2022-09-16T07:36:28.888Z,13.66
2022-09-16T07:39:18.368Z,13.65
2022-09-16T07:42:06.328Z,13.65
2022-09-16T07:44:54.024Z,13.75
2022-09-16T07:47:41.319Z,13.96
2022-09-16T07:50:28.952Z,14.25
2022-09-16T07:53:15.967Z,14.53
2022-09-16T07:56:08.479Z,14.77
2022-09-16T07:58:57.264Z,14.93
2022-09-16T08:01:44.774Z,15.00
2022-09-16T08:04:32.595Z,15.13
2022-09-16T08:07:20.632Z,15.04
2022-09-16T08:10:08.237Z,15.01
2022-09-16T08:12:55.791Z,14.98
2022-09-16T08:15:43.632Z,14.72
2022-09-16T08:18:31.320Z,14.41
2022-09-16T08:21:21.487Z,14.17
2022-09-16T08:24:10.257Z,13.91
2022-09-16T08:29:44.458Z,13.66
2022-09-16T08:32:31.864Z,13.82
2022-09-16T08:35:20.295Z,14.10
2022-09-16T08:38:07.505Z,14.28
2022-09-16T08:41:09.607Z,14.35
2022-09-16T08:44:06.087Z,14.27
2022-09-16T08:46:56.609Z,14.01
2022-09-16T08:49:47.033Z,13.78
2022-09-16T08:52:34.189Z,13.73
2022-09-16T08:55:35.999Z,13.63
2022-09-16T08:58:28.176Z,13.59
2022-09-16T09:04:00.798Z,14.00
2022-09-16T09:07:09.422Z,14.23
2022-09-16T09:09:59.878Z,14.63
2022-09-16T09:12:54.059Z,15.05
2022-09-16T09:15:50.744Z,15.10
2022-09-16T09:18:52.855Z,15.26
2022-09-16T09:21:52.287Z,15.39
2022-09-16T09:24:57.573Z,15.48
2022-09-16T09:28:07.174Z,15.64
2022-09-16T09:31:14.319Z,15.83
2022-09-16T09:34:16.703Z,15.84
2022-09-16T09:37:28.550Z,15.80
2022-09-16T09:40:27.991Z,15.86
2022-09-16T09:43:32.832Z,16.01
2022-09-16T09:46:26.670Z,16.10
2022-09-16T09:52:10.893Z,16.36
2022-09-16T09:55:01.374Z,16.63
2022-09-16T09:57:57.967Z,17.18
2022-09-16T10:00:46.125Z,17.62
2022-09-16T10:03:33.700Z,18.00
2022-09-16T10:06:24.089Z,18.32
2022-09-16T10:09:14.245Z,18.71
2022-09-16T10:12:02.117Z,18.77
2022-09-16T10:14:49.434Z,18.54
2022-09-16T10:17:37.205Z,18.17
2022-09-16T10:20:35.957Z,17.83
2022-09-16T10:23:29.653Z,17.65
2022-09-16T10:26:23.300Z,17.62
2022-09-16T10:29:20.310Z,17.53
2022-09-16T10:32:09.315Z,17.38
2022-09-16T10:34:57.033Z,16.99
2022-09-16T10:37:50.734Z,16.83
2022-09-16T10:40:38.281Z,16.83
2022-09-16T10:43:26.613Z,16.69
2022-09-16T10:46:16.250Z,16.47
2022-09-16T10:49:07.037Z,16.32
2022-09-16T10:51:54.077Z,16.22
2022-09-16T10:54:41.566Z,16.10
2022-09-16T10:57:33.501Z,16.18
2022-09-16T11:00:25.397Z,16.41
2022-09-16T11:03:38.229Z,16.68
2022-09-16T11:06:43.764Z,16.84
2022-09-16T11:09:50.392Z,17.11
2022-09-16T11:13:09.325Z,17.26
2022-09-16T11:15:59.840Z,17.48
2022-09-16T11:19:13.412Z,17.66
2022-09-16T11:25:19.173Z,17.17
2022-09-16T11:28:09.854Z,16.86
2022-09-16T11:31:17.256Z,16.62
2022-09-16T11:34:35.813Z,16.28
2022-09-16T11:37:32.756Z,15.90
2022-09-16T11:40:35.614Z,15.44
2022-09-16T11:43:54.998Z,14.97
2022-09-16T11:47:07.355Z,14.71
2022-09-16T11:50:13.452Z,14.59
2022-09-16T11:53:14.482Z,14.72
2022-09-16T11:56:07.821Z,14.91
2022-09-16T11:59:07.430Z,15.25
2022-09-16T12:02:00.399Z,15.47
2022-09-16T12:04:51.279Z,15.61
2022-09-16T12:07:44.365Z,15.81
2022-09-16T12:10:42.615Z,15.86
2022-09-16T12:14:05.662Z,15.93
2022-09-16T12:16:54.991Z,16.16
2022-09-16T12:19:50.955Z,16.51
2022-09-16T12:22:44.357Z,16.89
2022-09-16T12:25:38.371Z,17.27
2022-09-16T12:28:33.516Z,17.66
2022-09-16T12:34:19.191Z,18.13
2022-09-16T12:37:15.747Z,18.29
2022-09-16T12:40:04.733Z,18.58
2022-09-16T12:43:15.966Z,19.03
2022-09-16T12:46:21.389Z,19.22
2022-09-16T12:49:29.958Z,19.25
2022-09-16T12:52:26.316Z,19.30
2022-09-16T12:55:49.836Z,19.29
2022-09-16T12:58:55.004Z,19.28
2022-09-16T13:01:45.273Z,19.67
2022-09-16T13:04:50.492Z,19.67
2022-09-16T13:07:38.765Z,19.28
2022-09-16T13:10:55.878Z,20.61
2022-09-16T13:13:38.150Z,20.33
2022-09-16T13:16:31.494Z,19.54
2022-09-16T13:19:24.765Z,18.29
2022-09-16T13:22:27.367Z,17.07
2022-09-16T13:28:31.094Z,18.65
2022-09-16T13:31:21.064Z,19.12
2022-09-16T13:34:19.670Z,19.45
2022-09-16T13:37:10.278Z,21.15
2022-09-16T13:39:57.360Z,22.89
2022-09-16T13:42:44.863Z,23.85
2022-09-16T13:45:38.783Z,24.05
2022-09-16T13:48:27.352Z,24.09
2022-09-16T13:51:18.050Z,24.96
2022-09-16T13:54:04.759Z,24.58
2022-09-16T13:57:12.867Z,22.87
2022-09-16T14:00:22.964Z,21.81
2022-09-16T14:03:29.081Z,21.24
2022-09-16T14:06:47.440Z,22.16
2022-09-16T14:09:54.924Z,22.40
2022-09-16T14:12:53.919Z,22.96
2022-09-16T14:18:28.834Z,24.32
2022-09-16T14:21:21.935Z,24.54
2022-09-16T14:24:18.382Z,24.61
2022-09-16T14:27:06.711Z,24.63
2022-09-16T14:29:58.864Z,24.65
2022-09-16T14:32:47.258Z,23.32
2022-09-16T14:35:35.360Z,22.14
2022-09-16T14:41:33.747Z,22.08
2022-09-16T14:44:23.919Z,21.45
2022-09-16T14:47:21.897Z,20.29
2022-09-16T14:50:09.383Z,19.17
2022-09-16T14:53:00.295Z,18.32
2022-09-16T14:55:50.138Z,17.51
2022-09-16T14:58:38.300Z,17.08
2022-09-16T15:04:13.624Z,16.85
2022-09-16T15:07:04.841Z,16.79
2022-09-16T15:10:04.593Z,16.92
2022-09-16T15:12:53.752Z,17.03
2022-09-16T15:15:50.284Z,17.05
2022-09-16T15:18:43.567Z,16.94
2022-09-16T15:21:33.761Z,16.88
2022-09-16T15:24:29.115Z,16.85
2022-09-16T15:27:28.057Z,16.68
2022-09-16T15:30:26.535Z,16.49
2022-09-16T15:33:41.555Z,16.31
2022-09-16T15:36:40.871Z,16.02
2022-09-16T15:39:30.580Z,15.62
2022-09-16T15:45:02.744Z,15.46
2022-09-16T15:48:04.913Z,15.41
2022-09-16T15:51:01.744Z,15.38
2022-09-16T15:53:50.424Z,15.43
2022-09-16T15:56:44.734Z,15.49
2022-09-16T15:59:37.909Z,15.43
2022-09-16T16:02:37.066Z,15.26
2022-09-16T16:05:28.394Z,15.07
2022-09-16T16:08:17.103Z,14.87
2022-09-16T16:11:12.671Z,14.65
2022-09-16T16:14:02.011Z,14.52
2022-09-16T16:17:11.682Z,14.47
2022-09-16T16:19:41.405Z,14.48
2022-09-16T16:22:29.166Z,14.45
2022-09-16T16:25:16.508Z,14.32
2022-09-16T16:28:03.863Z,14.15
2022-09-16T16:30:51.390Z,14.01
2022-09-16T16:33:42.507Z,13.88
2022-09-16T16:36:27.640Z,13.77
2022-09-16T16:39:15.215Z,13.62
2022-09-16T16:42:04.576Z,13.40
2022-09-16T16:44:52.031Z,13.17
2022-09-16T16:47:39.847Z,12.94
2022-09-16T16:50:27.295Z,12.78
2022-09-16T16:53:14.767Z,12.59
2022-09-16T16:56:15.533Z,12.39
2022-09-16T16:59:01.809Z,12.19
2022-09-16T17:01:54.424Z,11.98
2022-09-16T17:04:42.104Z,11.76
2022-09-16T17:07:29.903Z,11.53
2022-09-16T17:10:17.447Z,11.37
2022-09-16T17:13:05.184Z,11.29
2022-09-16T17:15:54.187Z,11.23
2022-09-16T17:18:42.753Z,11.13
2022-09-16T17:21:33.175Z,11.04
2022-09-16T17:24:20.472Z,10.96
2022-09-16T17:27:08.182Z,10.82
2022-09-16T17:29:55.497Z,10.67
2022-09-16T17:32:43.880Z,10.50
2022-09-16T17:35:31.519Z,10.39
2022-09-16T17:38:19.169Z,10.33
2022-09-16T17:41:08.472Z,10.26
2022-09-16T17:43:59.997Z,10.23
2022-09-16T17:46:47.929Z,10.16
2022-09-16T17:49:35.599Z,10.09
2022-09-16T17:52:22.912Z,10.03
2022-09-16T17:55:10.263Z,9.96
2022-09-16T17:57:57.601Z,9.91
2022-09-16T18:00:44.944Z,9.86
2022-09-16T18:03:32.338Z,9.79
2022-09-16T18:06:24.929Z,9.73
2022-09-16T18:09:13.257Z,9.70
2022-09-16T18:12:00.818Z,9.61
2022-09-16T18:14:48.856Z,9.51
2022-09-16T18:17:36.280Z,9.45
2022-09-16T18:20:25.487Z,9.47
2022-09-16T18:23:15.528Z,9.55
2022-09-16T18:26:12.049Z,9.64
2022-09-16T18:29:15.092Z,9.67
2022-09-16T18:31:49.595Z,9.71
2022-09-16T18:34:37.352Z,9.74
2022-09-16T18:37:24.985Z,9.78
2022-09-16T18:40:13.796Z,9.80
2022-09-16T18:43:01.112Z,9.77
2022-09-16T18:45:48.600Z,9.73
2022-09-16T18:48:36.463Z,9.70
2022-09-16T18:51:28.971Z,9.58
2022-09-16T18:54:20.704Z,9.49
2022-09-16T18:57:09.432Z,9.44
2022-09-16T18:59:56.919Z,9.41
2022-09-16T19:02:57.033Z,9.42
2022-09-16T19:06:00.888Z,9.48
2022-09-16T19:09:10.913Z,9.50
2022-09-16T19:12:12.016Z,9.56
2022-09-16T19:18:23.288Z,9.66
2022-09-16T19:21:31.105Z,9.56
2022-09-16T19:24:28.647Z,9.52
2022-09-16T19:27:16.364Z,9.49
2022-09-16T19:30:03.754Z,9.49
2022-09-16T19:32:52.526Z,9.48
2022-09-16T19:35:40.119Z,9.48
2022-09-16T19:38:29.009Z,9.46
2022-09-16T19:41:17.591Z,9.43
2022-09-16T19:44:07.795Z,9.37
2022-09-16T19:46:56.023Z,9.37
2022-09-16T19:49:43.289Z,9.39
2022-09-16T19:52:30.895Z,9.43
2022-09-16T19:55:18.672Z,9.44
2022-09-16T19:58:06.558Z,9.48
2022-09-16T20:01:02.293Z,9.55
2022-09-16T20:03:53.128Z,9.59
2022-09-16T20:06:42.082Z,9.61
2022-09-16T20:09:29.825Z,9.61
2022-09-16T20:12:16.983Z,9.60
2022-09-16T20:15:05.272Z,9.61
2022-09-16T20:17:52.615Z,9.58
2022-09-16T20:20:39.952Z,9.57
2022-09-16T20:23:27.041Z,9.55
2022-09-16T20:26:17.463Z,9.49
2022-09-16T20:29:04.409Z,9.43
2022-09-16T20:31:53.893Z,9.30
2022-09-16T20:34:41.431Z,9.22
2022-09-16T20:37:30.184Z,9.12
2022-09-16T20:40:17.283Z,9.03
2022-09-16T20:43:04.695Z,8.96
2022-09-16T20:45:51.836Z,8.89
2022-09-16T20:48:40.759Z,8.82
2022-09-16T20:51:33.562Z,8.76
2022-09-16T20:54:21.099Z,8.72
2022-09-16T20:57:09.477Z,8.69
2022-09-16T20:59:57.948Z,8.64
2022-09-16T21:03:09.311Z,8.54
2022-09-16T21:06:01.795Z,8.46
2022-09-16T21:08:50.464Z,8.40
2022-09-16T21:11:39.824Z,8.40
2022-09-16T21:14:27.175Z,8.35
2022-09-16T21:17:14.512Z,8.32
2022-09-16T21:20:01.882Z,8.25
2022-09-16T21:22:49.328Z,8.17
2022-09-16T21:25:38.215Z,8.10
2022-09-16T21:28:25.473Z,8.03
2022-09-16T21:31:15.351Z,7.96
2022-09-16T21:34:03.512Z,7.88
2022-09-16T21:36:51.975Z,7.81
2022-09-16T21:39:39.241Z,7.71
2022-09-16T21:42:26.913Z,7.67
2022-09-16T21:45:15.265Z,7.64
2022-09-16T21:48:04.081Z,7.59
2022-09-16T21:50:53.505Z,7.55
2022-09-16T21:53:44.122Z,7.53
2022-09-16T21:56:31.759Z,7.45
2022-09-16T21:59:22.465Z,7.41
2022-09-16T22:02:09.679Z,7.37
2022-09-16T22:04:56.935Z,7.38
2022-09-16T22:07:44.249Z,7.40
2022-09-16T22:10:32.575Z,7.39
2022-09-16T22:13:19.896Z,7.38
2022-09-16T22:16:08.135Z,7.35
2022-09-16T22:19:03.289Z,7.29
2022-09-16T22:21:51.919Z,7.24
2022-09-16T22:24:38.874Z,7.21
2022-09-16T22:27:25.783Z,7.18
2022-09-16T22:30:13.387Z,7.20
2022-09-16T22:33:01.479Z,7.18
2022-09-16T22:35:49.377Z,7.15
2022-09-16T22:38:36.552Z,7.09
2022-09-16T22:41:24.776Z,6.98
2022-09-16T22:44:12.024Z,6.88
2022-09-16T22:46:59.125Z,6.80
2022-09-16T22:49:46.345Z,6.68
2022-09-16T22:52:34.159Z,6.62
2022-09-16T22:55:21.633Z,6.59
2022-09-16T22:58:08.793Z,6.55
2022-09-16T23:01:09.787Z,6.52
2022-09-16T23:03:59.636Z,6.51
2022-09-16T23:06:47.530Z,6.47
2022-09-16T23:09:35.878Z,6.44
2022-09-16T23:12:26.305Z,6.40
2022-09-16T23:15:14.546Z,6.37
2022-09-16T23:18:01.824Z,6.32
2022-09-16T23:21:01.620Z,6.29
2022-09-16T23:23:51.304Z,6.28
2022-09-16T23:26:39.943Z,6.15
2022-09-16T23:29:27.590Z,6.12
2022-09-16T23:32:14.903Z,6.09
2022-09-16T23:35:03.086Z,6.06
2022-09-16T23:37:50.922Z,6.04
2022-09-16T23:40:39.360Z,6.03
2022-09-16T23:43:26.527Z,6.02
2022-09-16T23:46:15.969Z,5.97
2022-09-16T23:49:03.391Z,5.96
2022-09-16T23:51:51.080Z,6.02
2022-09-16T23:54:38.312Z,6.03
2022-09-16T23:57:26.128Z,6.03
